Springfield, Illinois
Current Conditions -  °F | °C
As of 10:52 AM on Thursday 27 Nov 2014 (Local Time) from KSPI Reporting Station
Light Snow Light Snow  
Wind Chill: -10°   Ceiling: 2300
Heat Index: -3°   Visibility: 5mi
Dew Point: -6°   Wind: 16mph
Humidity: 81%   Direction: 290°WNW
Pressure: 30.45"   Gusts: NA
Location:  39.8°N, 89.64°W
Report Text: KSPI 271652Z 29014KT 5SM -SN FEW014 BKN023 OVC027 M03/M06 A3045 RMK AO2 SLP318 P0000 T10281056
Loading
Personal Weather Stations






























Interactive Weather Map New forecast layout! Learn more

10-Day Weather Forecast

Advertisements
Track Severe Weather on mobile